createdAt,value
2023-01-08T00:01:51.631Z,9.77
2023-01-08T00:04:22.294Z,9.30
2023-01-08T00:06:51.796Z,10.47
2023-01-08T00:09:21.096Z,10.17
2023-01-08T00:11:50.273Z,10.67
2023-01-08T00:14:19.460Z,9.50
2023-01-08T00:16:49.230Z,9.47
2023-01-08T00:19:18.817Z,10.33
2023-01-08T00:21:49.528Z,9.00
2023-01-08T00:24:18.810Z,8.60
2023-01-08T00:26:48.028Z,9.37
2023-01-08T00:29:17.495Z,9.40
2023-01-08T00:31:46.648Z,9.70
2023-01-08T00:34:16.039Z,9.13
2023-01-08T00:36:45.275Z,9.10
2023-01-08T00:39:15.976Z,8.90
2023-01-08T00:41:46.007Z,8.90
2023-01-08T00:44:15.368Z,9.63
2023-01-08T00:46:44.823Z,8.00
2023-01-08T00:49:14.120Z,7.60
2023-01-08T00:51:43.439Z,8.07
2023-01-08T00:54:13.076Z,7.80
2023-01-08T00:56:43.721Z,6.37
2023-01-08T00:59:13.027Z,5.57
2023-01-08T01:01:42.534Z,4.10
2023-01-08T01:04:11.796Z,5.10
2023-01-08T01:06:41.513Z,4.00
2023-01-08T01:09:10.990Z,4.60
2023-01-08T01:11:40.178Z,3.90
2023-01-08T01:14:12.239Z,3.70
2023-01-08T01:16:42.013Z,3.97
2023-01-08T01:19:11.199Z,3.97
2023-01-08T01:21:40.790Z,4.70
2023-01-08T01:24:10.156Z,4.30
2023-01-08T01:26:39.508Z,4.00
2023-01-08T01:29:10.237Z,4.27
2023-01-08T01:31:39.731Z,4.07
2023-01-08T01:34:08.958Z,4.33
2023-01-08T01:36:39.247Z,4.10
2023-01-08T01:39:08.679Z,3.50
2023-01-08T01:41:39.926Z,3.77
2023-01-08T01:44:27.439Z,3.80
2023-01-08T01:46:58.389Z,3.70
2023-01-08T01:49:27.737Z,3.70
2023-01-08T01:51:58.165Z,3.80
2023-01-08T01:54:27.541Z,3.10
2023-01-08T01:56:56.905Z,3.40
2023-01-08T01:59:26.738Z,3.63
2023-01-08T02:01:56.526Z,3.70
2023-01-08T02:04:27.288Z,4.50
2023-01-08T02:06:59.987Z,3.90
2023-01-08T02:09:35.794Z,4.37
2023-01-08T02:12:20.206Z,4.63
2023-01-08T02:14:55.878Z,4.07
2023-01-08T02:17:28.274Z,4.60
2023-01-08T02:20:00.346Z,5.57
2023-01-08T02:22:37.465Z,5.23
2023-01-08T02:25:10.845Z,4.50
2023-01-08T02:27:44.513Z,5.00
2023-01-08T02:30:14.243Z,6.00
2023-01-08T02:32:44.564Z,5.80
2023-01-08T02:35:14.623Z,5.90
2023-01-08T02:37:44.481Z,5.30
2023-01-08T02:40:18.914Z,5.60
2023-01-08T02:42:52.958Z,6.00
2023-01-08T02:45:39.948Z,5.53
2023-01-08T02:48:12.116Z,5.70
2023-01-08T02:50:42.926Z,4.70
2023-01-08T02:53:14.089Z,6.20
2023-01-08T02:55:44.544Z,6.00
2023-01-08T02:58:15.515Z,6.10
2023-01-08T03:00:46.737Z,5.83
2023-01-08T03:03:18.408Z,5.80
2023-01-08T03:05:50.985Z,5.83
2023-01-08T03:08:20.921Z,5.50
2023-01-08T03:10:51.915Z,5.40
2023-01-08T03:13:26.395Z,4.80
2023-01-08T03:15:57.743Z,5.30
2023-01-08T03:18:29.268Z,5.23
2023-01-08T03:20:58.503Z,4.10
2023-01-08T03:23:28.967Z,4.27
2023-01-08T03:25:59.026Z,5.60
2023-01-08T03:28:33.130Z,4.43
2023-01-08T03:31:03.433Z,4.90
2023-01-08T03:33:32.894Z,4.47
2023-01-08T03:36:03.387Z,4.67
2023-01-08T03:38:35.213Z,4.97
2023-01-08T03:41:07.402Z,5.10
2023-01-08T03:43:38.212Z,4.50
2023-01-08T03:46:11.089Z,5.00
2023-01-08T03:48:40.798Z,5.00
2023-01-08T03:51:10.737Z,4.80
2023-01-08T03:53:39.956Z,5.13
2023-01-08T03:56:09.557Z,5.33
2023-01-08T03:58:40.309Z,4.50
2023-01-08T04:01:09.592Z,4.83
2023-01-08T04:03:38.950Z,4.73
2023-01-08T04:06:08.358Z,5.00
2023-01-08T04:08:37.706Z,4.13
2023-01-08T04:11:07.222Z,4.50
2023-01-08T04:13:36.488Z,4.40
2023-01-08T04:16:08.449Z,4.20
2023-01-08T04:18:37.722Z,4.70
2023-01-08T04:21:07.117Z,5.13
2023-01-08T04:23:36.551Z,5.30
2023-01-08T04:26:07.026Z,5.40
2023-01-08T04:28:36.279Z,5.10
2023-01-08T04:31:09.365Z,4.93
2023-01-08T04:33:38.801Z,4.53
2023-01-08T04:36:08.252Z,5.60
2023-01-08T04:38:37.444Z,4.93
2023-01-08T04:41:06.691Z,4.87
2023-01-08T04:43:36.144Z,5.37
2023-01-08T04:46:07.833Z,4.93
2023-01-08T04:48:38.561Z,5.60
2023-01-08T04:51:08.409Z,4.87
2023-01-08T04:53:40.648Z,5.17
2023-01-08T04:56:11.350Z,4.77
2023-01-08T04:58:40.881Z,5.40
2023-01-08T05:01:14.163Z,5.00
2023-01-08T05:03:44.786Z,5.47
2023-01-08T05:06:14.076Z,5.27
2023-01-08T05:08:43.380Z,5.20
2023-01-08T05:11:12.624Z,4.60
2023-01-08T05:13:41.829Z,5.37
2023-01-08T05:16:11.138Z,5.70
2023-01-08T05:18:40.512Z,5.30
2023-01-08T05:21:11.486Z,5.10
2023-01-08T05:23:40.964Z,4.80
2023-01-08T05:26:10.132Z,4.80
2023-01-08T05:28:39.986Z,4.90
2023-01-08T05:31:09.242Z,5.57
2023-01-08T05:33:38.664Z,5.37
2023-01-08T05:36:08.608Z,5.70
2023-01-08T05:38:39.471Z,4.63
2023-01-08T05:41:09.632Z,5.90
2023-01-08T05:43:38.853Z,6.20
2023-01-08T05:46:08.230Z,6.87
2023-01-08T05:48:37.894Z,6.20
2023-01-08T05:51:07.295Z,5.90
2023-01-08T05:53:36.580Z,6.90
2023-01-08T05:56:09.946Z,6.03
2023-01-08T05:58:39.207Z,6.60
2023-01-08T06:01:09.597Z,5.93
2023-01-08T06:03:39.058Z,6.20
2023-01-08T06:06:09.751Z,5.43
2023-01-08T06:08:39.864Z,5.63
2023-01-08T06:11:11.282Z,5.53
2023-01-08T06:13:43.403Z,5.47
2023-01-08T06:16:13.046Z,6.43
2023-01-08T06:18:42.273Z,5.90
2023-01-08T06:21:13.512Z,5.97
2023-01-08T06:23:42.667Z,6.03
2023-01-08T06:26:13.219Z,6.00
2023-01-08T06:28:42.805Z,6.03
2023-01-08T06:31:12.397Z,5.70
2023-01-08T06:33:41.681Z,6.50
2023-01-08T06:36:11.054Z,5.80
2023-01-08T06:38:40.345Z,6.43
2023-01-08T06:41:10.508Z,5.33
2023-01-08T06:43:41.403Z,5.80
2023-01-08T06:46:11.456Z,5.90
2023-01-08T06:48:40.600Z,5.50
2023-01-08T06:51:09.903Z,5.47
2023-01-08T06:53:39.047Z,5.63
2023-01-08T06:56:11.023Z,6.43
2023-01-08T06:58:41.685Z,5.70
2023-01-08T07:01:16.809Z,5.90
2023-01-08T07:03:46.310Z,5.90
2023-01-08T07:06:16.557Z,5.83
2023-01-08T07:08:46.617Z,5.90
2023-01-08T07:11:15.852Z,5.00
2023-01-08T07:13:46.684Z,4.93
2023-01-08T07:16:16.401Z,5.60
2023-01-08T07:18:45.665Z,5.40
2023-01-08T07:21:14.918Z,5.90
2023-01-08T07:23:46.822Z,5.53
2023-01-08T07:26:16.281Z,6.20
2023-01-08T07:28:46.905Z,5.60
2023-01-08T07:31:16.472Z,5.47
2023-01-08T07:33:45.823Z,5.80
2023-01-08T07:36:15.901Z,5.93
2023-01-08T07:38:45.314Z,5.80
2023-01-08T07:41:14.619Z,23.57
2023-01-08T07:43:43.860Z,16.80
2023-01-08T07:46:14.634Z,18.07
2023-01-08T07:48:43.798Z,7.60
2023-01-08T07:51:13.167Z,6.40
2023-01-08T07:53:42.495Z,7.20
2023-01-08T07:56:12.658Z,6.43
2023-01-08T07:58:41.835Z,6.57
2023-01-08T08:01:12.453Z,5.80
2023-01-08T08:03:43.679Z,6.70
2023-01-08T08:06:13.165Z,5.60
2023-01-08T08:08:42.529Z,6.50
2023-01-08T08:11:11.805Z,6.40
2023-01-08T08:13:45.041Z,6.10
2023-01-08T08:16:14.323Z,6.67
2023-01-08T08:18:45.411Z,6.30
2023-01-08T08:21:14.749Z,6.60
2023-01-08T08:23:43.925Z,6.27
2023-01-08T08:26:13.264Z,6.53
2023-01-08T08:28:42.649Z,7.43
2023-01-08T08:31:11.992Z,5.93
2023-01-08T08:33:41.411Z,12.37
2023-01-08T08:36:12.746Z,6.20
2023-01-08T08:38:42.160Z,5.50
2023-01-08T08:41:11.389Z,5.60
2023-01-08T08:43:40.854Z,5.97
2023-01-08T08:46:10.032Z,5.70
2023-01-08T08:48:39.442Z,5.40
2023-01-08T08:51:08.590Z,5.20
2023-01-08T08:53:39.620Z,5.40
2023-01-08T08:56:09.230Z,4.77
2023-01-08T08:58:38.389Z,4.83
2023-01-08T09:01:08.498Z,14.70
2023-01-08T09:03:42.800Z,6.50
2023-01-08T09:06:15.390Z,6.57
2023-01-08T09:08:46.132Z,5.73
2023-01-08T09:11:15.403Z,5.27
2023-01-08T09:13:45.085Z,4.90
2023-01-08T09:16:14.510Z,5.80
2023-01-08T09:18:44.907Z,4.70
2023-01-08T09:21:14.244Z,5.27
2023-01-08T09:23:43.587Z,5.70
2023-01-08T09:26:14.504Z,5.90
2023-01-08T09:28:44.109Z,5.03
2023-01-08T09:31:13.378Z,6.73
2023-01-08T09:33:42.545Z,5.27
2023-01-08T09:36:12.322Z,5.23
2023-01-08T09:38:43.708Z,5.80
2023-01-08T09:41:16.583Z,7.07
2023-01-08T09:43:47.671Z,6.27
2023-01-08T09:46:18.765Z,5.60
2023-01-08T09:48:48.539Z,6.77
2023-01-08T09:51:20.098Z,6.30
2023-01-08T09:53:52.472Z,7.10
2023-01-08T09:56:23.304Z,6.90
2023-01-08T09:58:53.648Z,7.90
2023-01-08T10:01:23.722Z,8.43
2023-01-08T10:03:54.492Z,8.77
2023-01-08T10:06:25.837Z,8.77
2023-01-08T10:08:55.316Z,7.23
2023-01-08T10:11:26.413Z,7.77
2023-01-08T10:13:56.731Z,7.27
2023-01-08T10:16:30.619Z,8.83
2023-01-08T10:19:00.514Z,9.40
2023-01-08T10:21:31.443Z,8.80
2023-01-08T10:24:00.759Z,9.70
2023-01-08T10:26:32.659Z,11.40
2023-01-08T10:29:08.953Z,11.17
2023-01-08T10:31:41.419Z,9.17
2023-01-08T10:34:11.642Z,9.90
2023-01-08T10:36:42.660Z,9.20
2023-01-08T10:39:21.127Z,9.27
2023-01-08T10:41:53.990Z,12.00
2023-01-08T10:44:24.825Z,9.33
2023-01-08T10:46:56.237Z,9.20
2023-01-08T10:49:29.328Z,9.23
2023-01-08T10:51:58.684Z,10.33
2023-01-08T10:54:30.892Z,10.67
2023-01-08T10:57:02.654Z,10.07
2023-01-08T10:59:32.499Z,14.30
2023-01-08T11:02:02.474Z,9.17
2023-01-08T11:04:33.942Z,9.13
2023-01-08T11:07:04.218Z,9.97
2023-01-08T11:09:34.850Z,9.37
2023-01-08T11:12:05.684Z,9.33
2023-01-08T11:14:36.458Z,9.90
2023-01-08T11:17:11.683Z,9.03
2023-01-08T11:19:41.193Z,9.27
2023-01-08T11:22:19.874Z,9.93
2023-01-08T11:24:49.840Z,9.57
2023-01-08T11:27:22.993Z,9.93
2023-01-08T11:29:55.648Z,9.10
2023-01-08T11:32:31.415Z,8.23
2023-01-08T11:35:03.556Z,9.53
2023-01-08T11:37:35.474Z,9.60
2023-01-08T11:40:05.603Z,8.83
2023-01-08T11:42:49.334Z,9.40
2023-01-08T11:45:24.390Z,8.37
2023-01-08T11:48:08.983Z,9.53
2023-01-08T11:50:43.378Z,8.90
2023-01-08T11:53:17.211Z,10.90
2023-01-08T11:55:55.399Z,9.27
2023-01-08T11:58:30.607Z,9.20
2023-01-08T12:01:16.862Z,8.50
2023-01-08T12:03:48.497Z,10.60
2023-01-08T12:06:25.123Z,10.03
2023-01-08T12:08:57.737Z,11.30
2023-01-08T12:11:28.779Z,12.03
2023-01-08T12:14:05.423Z,11.50
2023-01-08T12:16:41.587Z,12.27
2023-01-08T12:19:19.053Z,11.50
2023-01-08T12:21:56.103Z,11.90
2023-01-08T12:24:41.859Z,12.70
2023-01-08T12:27:15.893Z,12.00
2023-01-08T12:30:02.852Z,12.73
2023-01-08T12:32:37.791Z,10.87
2023-01-08T12:35:11.229Z,11.43
2023-01-08T12:37:43.618Z,13.60
2023-01-08T12:40:17.046Z,14.87
2023-01-08T12:43:00.080Z,14.00
2023-01-08T12:45:32.383Z,14.43
2023-01-08T12:48:05.371Z,14.73
2023-01-08T12:50:55.380Z,14.80
2023-01-08T12:53:30.907Z,14.50
2023-01-08T12:56:03.416Z,17.23
2023-01-08T12:58:41.445Z,17.83
2023-01-08T13:01:19.104Z,18.10
2023-01-08T13:03:49.241Z,17.70
2023-01-08T13:06:19.540Z,15.27
2023-01-08T13:08:50.773Z,15.73
2023-01-08T13:11:27.318Z,17.57
2023-01-08T13:14:07.080Z,16.00
2023-01-08T13:16:39.813Z,13.63
2023-01-08T13:19:10.176Z,14.53
2023-01-08T13:21:40.023Z,13.97
2023-01-08T13:24:23.664Z,15.30
2023-01-08T13:26:52.859Z,13.77
2023-01-08T13:29:39.117Z,15.23
2023-01-08T13:32:23.381Z,14.20
2023-01-08T13:35:04.363Z,15.10
2023-01-08T13:37:33.563Z,15.70
2023-01-08T13:40:05.306Z,14.57
2023-01-08T13:42:36.253Z,15.87
2023-01-08T13:45:06.819Z,16.10
2023-01-08T13:47:36.947Z,16.60
2023-01-08T13:50:16.327Z,14.33
2023-01-08T13:52:47.131Z,13.27
2023-01-08T13:55:18.605Z,13.10
2023-01-08T13:57:49.515Z,11.70
2023-01-08T14:00:24.706Z,10.57
2023-01-08T14:02:55.358Z,10.83
2023-01-08T14:05:28.356Z,11.37
2023-01-08T14:07:57.974Z,10.40
2023-01-08T14:10:28.027Z,9.27
2023-01-08T14:12:58.830Z,8.20
2023-01-08T14:15:28.525Z,8.43
2023-01-08T14:17:58.195Z,8.80
2023-01-08T14:20:33.268Z,7.80
2023-01-08T14:23:03.192Z,7.60
2023-01-08T14:25:32.634Z,8.77
2023-01-08T14:28:03.734Z,8.40
2023-01-08T14:30:33.032Z,7.00
2023-01-08T14:33:03.109Z,6.37
2023-01-08T14:35:35.826Z,6.80
2023-01-08T14:38:05.873Z,6.40
2023-01-08T14:40:38.051Z,5.80
2023-01-08T14:43:10.111Z,6.47
2023-01-08T14:45:40.447Z,6.87
2023-01-08T14:48:15.026Z,6.47
2023-01-08T14:50:47.068Z,7.07
2023-01-08T14:53:21.472Z,7.20
2023-01-08T14:55:52.134Z,5.77
2023-01-08T14:58:24.481Z,5.60
2023-01-08T15:00:59.232Z,7.60
2023-01-08T15:03:33.410Z,6.37
2023-01-08T15:06:04.430Z,6.00
2023-01-08T15:08:38.256Z,7.00
2023-01-08T15:11:09.241Z,6.30
2023-01-08T15:13:39.393Z,7.27
2023-01-08T15:16:09.835Z,6.43
2023-01-08T15:18:44.401Z,6.70
2023-01-08T15:21:20.042Z,11.27
2023-01-08T15:23:50.798Z,6.87
2023-01-08T15:26:20.359Z,6.10
2023-01-08T15:28:52.259Z,6.20
2023-01-08T15:31:28.735Z,5.20
2023-01-08T15:33:58.531Z,3.80
2023-01-08T15:36:29.569Z,3.60
2023-01-08T15:38:58.904Z,3.53
2023-01-08T15:41:45.877Z,4.17
2023-01-08T15:44:15.543Z,3.83
2023-01-08T15:46:45.041Z,4.00
2023-01-08T15:49:14.506Z,3.80
2023-01-08T15:51:47.257Z,4.40
2023-01-08T15:54:17.302Z,4.10
2023-01-08T15:56:46.780Z,4.10
2023-01-08T15:59:16.002Z,4.00
2023-01-08T16:01:45.584Z,3.87
2023-01-08T16:04:15.139Z,4.00
2023-01-08T16:06:45.858Z,7.90
2023-01-08T16:09:15.417Z,4.57
2023-01-08T16:11:44.635Z,4.77
2023-01-08T16:14:13.945Z,3.90
2023-01-08T16:16:43.310Z,4.20
2023-01-08T16:19:12.625Z,4.43
2023-01-08T16:21:46.961Z,4.80
2023-01-08T16:24:17.985Z,4.90
2023-01-08T16:26:47.303Z,6.20
2023-01-08T16:29:17.078Z,4.83
2023-01-08T16:31:46.935Z,3.97
2023-01-08T16:34:16.688Z,4.43
2023-01-08T16:36:46.353Z,15.43
2023-01-08T16:39:15.669Z,4.23
2023-01-08T16:41:47.199Z,4.80
2023-01-08T16:44:20.710Z,7.10
2023-01-08T16:46:50.157Z,5.20
2023-01-08T16:49:19.674Z,3.73
2023-01-08T16:51:49.514Z,4.77
2023-01-08T16:54:18.930Z,4.83
2023-01-08T16:56:49.616Z,9.93
2023-01-08T16:59:23.712Z,4.90
2023-01-08T17:01:53.690Z,3.97
2023-01-08T17:04:23.043Z,4.10
2023-01-08T17:06:52.288Z,5.50
2023-01-08T17:09:21.582Z,8.27
2023-01-08T17:11:52.470Z,6.40
2023-01-08T17:14:21.829Z,5.10
2023-01-08T17:16:51.046Z,5.03
2023-01-08T17:19:20.793Z,5.33
2023-01-08T17:21:51.710Z,5.33
2023-01-08T17:24:21.135Z,5.77
2023-01-08T17:26:50.328Z,5.97
2023-01-08T17:29:20.990Z,5.93
2023-01-08T17:31:50.594Z,6.27
2023-01-08T17:34:19.768Z,8.27
2023-01-08T17:36:49.577Z,8.00
2023-01-08T17:39:18.779Z,11.07
2023-01-08T17:42:05.247Z,5.93
2023-01-08T17:44:36.048Z,6.07
2023-01-08T17:47:05.352Z,4.13
2023-01-08T17:49:34.806Z,3.40
2023-01-08T17:52:04.104Z,2.83
2023-01-08T17:54:33.480Z,2.63
2023-01-08T17:57:02.776Z,3.27
2023-01-08T17:59:32.036Z,3.03
2023-01-08T18:02:03.237Z,2.83
2023-01-08T18:04:33.208Z,3.03
2023-01-08T18:07:02.674Z,3.67
2023-01-08T18:09:31.953Z,3.60
2023-01-08T18:12:01.157Z,3.40
2023-01-08T18:14:30.357Z,3.60
2023-01-08T18:16:59.754Z,3.30
2023-01-08T18:19:30.332Z,3.00
2023-01-08T18:21:59.820Z,3.37
2023-01-08T18:24:29.110Z,3.03
2023-01-08T18:26:59.357Z,2.80
2023-01-08T18:29:28.693Z,2.80
2023-01-08T18:31:58.186Z,2.33
2023-01-08T18:34:27.770Z,2.90
2023-01-08T18:36:58.586Z,2.40
2023-01-08T18:39:30.091Z,2.60
2023-01-08T18:42:17.034Z,2.60
2023-01-08T18:44:46.204Z,3.00
2023-01-08T18:47:15.715Z,3.10
2023-01-08T18:49:45.404Z,4.57
2023-01-08T18:52:16.049Z,4.40
2023-01-08T18:54:45.307Z,2.77
2023-01-08T18:57:14.788Z,2.80
2023-01-08T18:59:44.045Z,2.80
2023-01-08T19:02:19.405Z,2.53
2023-01-08T19:04:48.866Z,2.37
2023-01-08T19:07:19.590Z,3.87
2023-01-08T19:09:48.848Z,2.77
2023-01-08T19:12:18.136Z,2.53
2023-01-08T19:14:47.337Z,2.47
2023-01-08T19:17:16.563Z,5.30
2023-01-08T19:19:45.893Z,3.73
2023-01-08T19:22:15.086Z,3.63
2023-01-08T19:24:45.778Z,3.33
2023-01-08T19:27:16.028Z,4.13
2023-01-08T19:29:45.609Z,4.20
2023-01-08T19:32:14.846Z,3.40
2023-01-08T19:34:44.354Z,2.87
2023-01-08T19:37:15.028Z,4.10
2023-01-08T19:39:45.881Z,5.00
2023-01-08T19:42:32.722Z,3.20
2023-01-08T19:45:02.077Z,2.83
2023-01-08T19:47:31.223Z,3.40
2023-01-08T19:50:01.324Z,3.10
2023-01-08T19:52:30.580Z,3.37
2023-01-08T19:55:01.764Z,2.77
2023-01-08T19:57:31.183Z,2.60
2023-01-08T20:00:00.464Z,3.83
2023-01-08T20:02:29.769Z,3.23
2023-01-08T20:04:59.145Z,3.40
2023-01-08T20:07:28.544Z,2.30
2023-01-08T20:09:58.241Z,2.13
2023-01-08T20:12:29.078Z,2.60
2023-01-08T20:14:58.375Z,2.50
2023-01-08T20:17:27.603Z,3.07
2023-01-08T20:19:56.859Z,3.10
2023-01-08T20:22:27.904Z,2.87
2023-01-08T20:24:58.509Z,2.67
2023-01-08T20:27:29.368Z,3.97
2023-01-08T20:29:58.951Z,2.77
2023-01-08T20:32:28.315Z,3.37
2023-01-08T20:34:57.645Z,3.20
2023-01-08T20:37:26.901Z,1.97
2023-01-08T20:39:56.035Z,6.00
2023-01-08T20:42:33.473Z,13.77
2023-01-08T20:45:04.578Z,6.90
2023-01-08T20:47:36.057Z,2.33
2023-01-08T20:50:12.559Z,4.77
2023-01-08T20:52:48.855Z,2.60
2023-01-08T20:55:18.809Z,2.20
2023-01-08T20:57:48.105Z,2.10
2023-01-08T21:00:19.171Z,3.13
2023-01-08T21:02:48.360Z,3.27
2023-01-08T21:05:17.712Z,2.43
2023-01-08T21:07:47.448Z,2.50
2023-01-08T21:10:16.604Z,2.20
2023-01-08T21:12:45.903Z,2.67
2023-01-08T21:15:16.168Z,2.60
2023-01-08T21:17:46.888Z,1.90
2023-01-08T21:20:16.717Z,2.33
2023-01-08T21:22:45.983Z,2.77
2023-01-08T21:25:15.315Z,1.90
2023-01-08T21:27:44.600Z,2.00
2023-01-08T21:30:14.237Z,2.83
2023-01-08T21:32:43.470Z,2.70
2023-01-08T21:35:14.172Z,2.73
2023-01-08T21:37:43.386Z,2.97
2023-01-08T21:40:13.029Z,1.87
2023-01-08T21:42:59.825Z,1.80
2023-01-08T21:45:29.864Z,2.10
2023-01-08T21:47:59.385Z,2.13
2023-01-08T21:50:30.119Z,1.70
2023-01-08T21:53:17.264Z,1.50
2023-01-08T21:55:46.672Z,1.83
2023-01-08T21:58:15.957Z,1.70
2023-01-08T22:00:45.491Z,1.67
2023-01-08T22:03:15.211Z,1.77
2023-01-08T22:05:45.850Z,1.63
2023-01-08T22:08:18.872Z,1.63
2023-01-08T22:10:48.687Z,2.17
2023-01-08T22:13:17.832Z,1.90
2023-01-08T22:15:47.091Z,1.53
2023-01-08T22:18:16.347Z,5.47
2023-01-08T22:20:46.975Z,1.60
2023-01-08T22:23:16.305Z,1.83
2023-01-08T22:25:45.520Z,1.85
2023-01-08T22:28:14.940Z,1.23
2023-01-08T22:30:44.240Z,1.43
2023-01-08T22:33:13.421Z,1.70
2023-01-08T22:35:42.730Z,1.77
2023-01-08T22:38:13.550Z,1.30
2023-01-08T22:40:42.783Z,1.50
2023-01-08T22:43:12.037Z,1.87
2023-01-08T22:45:41.286Z,1.70
2023-01-08T22:48:10.535Z,2.13
2023-01-08T22:50:39.793Z,1.80
2023-01-08T22:53:09.297Z,1.60
2023-01-08T22:55:42.184Z,1.77
2023-01-08T22:58:11.737Z,1.60
2023-01-08T23:00:41.093Z,1.80
2023-01-08T23:03:10.393Z,1.63
2023-01-08T23:05:39.699Z,1.30
2023-01-08T23:08:09.058Z,1.70
2023-01-08T23:10:38.364Z,1.87
2023-01-08T23:13:09.272Z,1.63
2023-01-08T23:15:38.526Z,1.80
2023-01-08T23:18:07.766Z,3.90
2023-01-08T23:20:37.061Z,1.80
2023-01-08T23:23:06.282Z,1.70
2023-01-08T23:25:35.465Z,2.10
2023-01-08T23:28:04.754Z,1.50
2023-01-08T23:30:35.403Z,2.20
2023-01-08T23:33:04.712Z,2.03
2023-01-08T23:35:33.955Z,1.73
2023-01-08T23:38:03.110Z,1.77
2023-01-08T23:40:32.256Z,1.90
2023-01-08T23:43:01.637Z,2.07
2023-01-08T23:45:30.844Z,1.73
2023-01-08T23:48:01.517Z,1.97
2023-01-08T23:50:30.822Z,2.00
2023-01-08T23:53:00.234Z,2.00
2023-01-08T23:55:29.783Z,2.43
2023-01-08T23:57:59.140Z,1.87
